Time;durP1;ratioP1;P1;durP2;ratioP2;P2;SDS_P1;SDS_P2;PMS_P1;PMS_P2;Temp;Humidity;BMP_temperature;BMP_pressure;BME280_temperature;BME280_humidity;BME280_pressure;Samples;Min_cycle;Max_cycle;Signal;HPM_P1;HPM_P2
2023/01/16 00:00:50;;;;;;;0.80;0.28;;;8.20;99.90;;;;;;6343740;22;20007;-78
2023/01/16 00:03:15;;;;;;;0.88;0.20;;;8.10;99.90;;;;;;6315954;22;20006;-79
2023/01/16 00:05:42;;;;;;;1.17;0.40;;;8.10;99.90;;;;;;6343742;22;20061;-79
2023/01/16 00:08:09;;;;;;;0.80;0.40;;;8.10;99.90;;;;;;6343860;22;19999;-78
2023/01/16 00:10:34;;;;;;;1.73;0.43;;;8.00;99.90;;;;;;6315679;22;20056;-78
2023/01/16 00:13:00;;;;;;;1.63;0.40;;;8.00;99.90;;;;;;6343894;22;19999;-77
2023/01/16 00:15:26;;;;;;;0.77;0.20;;;8.00;99.90;;;;;;6343820;22;20010;-78
2023/01/16 00:17:52;;;;;;;1.00;0.30;;;8.00;99.90;;;;;;6343731;22;19998;-77
2023/01/16 00:20:18;;;;;;;1.13;0.40;;;8.00;99.90;;;;;;6343542;22;20007;-77
2023/01/16 00:22:44;;;;;;;1.27;0.30;;;8.00;99.90;;;;;;6343840;22;20002;-77
2023/01/16 00:25:10;;;;;;;0.80;0.50;;;8.00;99.90;;;;;;6315808;22;20006;-79
2023/01/16 00:27:35;;;;;;;0.68;0.28;;;8.00;99.90;;;;;;6343245;22;20044;-79
2023/01/16 00:30:01;;;;;;;0.40;0.20;;;7.90;99.90;;;;;;6342000;22;20443;-78
2023/01/16 00:32:27;;;;;;;1.60;0.45;;;7.90;99.90;;;;;;6343827;22;20030;-78
2023/01/16 00:34:53;;;;;;;1.98;0.40;;;7.90;99.90;;;;;;6343120;22;20019;-78
2023/01/16 00:37:18;;;;;;;2.35;0.40;;;8.00;99.90;;;;;;6342630;22;20340;-78
2023/01/16 00:39:44;;;;;;;0.55;0.38;;;8.00;99.90;;;;;;6343447;22;20439;-76
2023/01/16 00:42:10;;;;;;;1.63;0.45;;;8.00;99.90;;;;;;6343652;22;20034;-77
2023/01/16 00:44:35;;;;;;;2.38;0.40;;;8.10;99.90;;;;;;6343412;22;20463;-77
2023/01/16 00:47:01;;;;;;;1.42;0.40;;;8.10;99.90;;;;;;6343062;22;20006;-77
2023/01/16 00:49:27;;;;;;;1.58;0.45;;;8.10;99.90;;;;;;6342810;22;19995;-77
2023/01/16 00:51:53;;;;;;;3.38;0.60;;;8.20;99.90;;;;;;6343818;22;20006;-78
2023/01/16 00:54:19;;;;;;;2.10;0.80;;;8.20;99.90;;;;;;6343588;22;20006;-77
2023/01/16 00:56:45;;;;;;;4.47;0.50;;;8.20;99.90;;;;;;6343587;22;20034;-77
2023/01/16 00:59:11;;;;;;;2.50;0.50;;;8.20;99.90;;;;;;6343531;22;20013;-77
2023/01/16 01:01:37;;;;;;;2.95;0.70;;;8.20;99.90;;;;;;6343813;22;20006;-77
2023/01/16 01:04:03;;;;;;;1.52;0.40;;;8.20;99.90;;;;;;6345251;22;19995;-77
2023/01/16 01:06:28;;;;;;;3.35;0.70;;;8.20;99.90;;;;;;6318285;22;19999;-78
2023/01/16 01:08:54;;;;;;;2.25;0.47;;;8.20;99.90;;;;;;6318056;22;19999;-78
2023/01/16 01:11:21;;;;;;;3.25;0.57;;;8.20;99.90;;;;;;6317933;22;20003;-78
2023/01/16 01:13:47;;;;;;;1.10;0.50;;;8.10;99.90;;;;;;6345256;22;20027;-77
2023/01/16 01:16:12;;;;;;;2.67;0.65;;;8.10;99.90;;;;;;6345468;22;20453;-78
2023/01/16 01:18:38;;;;;;;3.13;0.70;;;8.10;99.90;;;;;;6345233;22;20002;-78
2023/01/16 01:21:05;;;;;;;2.40;0.60;;;8.10;99.90;;;;;;6345069;22;20489;-78
2023/01/16 01:23:31;;;;;;;2.00;0.55;;;8.10;99.90;;;;;;6317914;22;19999;-77
2023/01/16 01:25:56;;;;;;;5.55;0.98;;;8.10;99.90;;;;;;6345355;22;19995;-77
2023/01/16 01:28:22;;;;;;;4.30;0.90;;;8.10;99.90;;;;;;6345392;22;20040;-78
2023/01/16 01:30:48;;;;;;;4.72;1.35;;;8.20;99.90;;;;;;6345366;22;19995;-77
2023/01/16 01:33:13;;;;;;;5.13;0.80;;;8.20;99.90;;;;;;6344875;22;20003;-77
2023/01/16 01:35:39;;;;;;;2.83;0.95;;;8.20;99.90;;;;;;6316901;22;20006;-77
2023/01/16 01:38:05;;;;;;;2.83;0.90;;;8.20;99.90;;;;;;6344958;22;20454;-77
2023/01/16 01:40:32;;;;;;;2.85;1.10;;;8.20;99.90;;;;;;6345235;22;20060;-77
2023/01/16 01:42:57;;;;;;;1.95;0.70;;;8.20;99.90;;;;;;6345016;22;20002;-77
2023/01/16 01:45:25;;;;;;;4.45;0.88;;;8.20;99.90;;;;;;6317924;22;20013;-77
2023/01/16 01:48:02;;;;;;;4.60;1.00;;;8.20;99.90;;;;;;6344991;22;19998;-78
2023/01/16 01:50:36;;;;;;;3.78;0.80;;;8.20;99.90;;;;;;6317245;22;20006;-78
2023/01/16 01:53:06;;;;;;;4.10;1.02;;;8.20;99.90;;;;;;6345142;22;19998;-78
2023/01/16 01:55:32;;;;;;;5.03;0.98;;;8.20;99.90;;;;;;6345229;22;20003;-78
2023/01/16 01:58:01;;;;;;;4.50;1.23;;;8.20;99.90;;;;;;6344964;22;20026;-78
2023/01/16 02:00:27;;;;;;;4.38;0.98;;;8.20;99.90;;;;;;6345454;22;20009;-79
2023/01/16 02:03:06;;;;;;;3.53;0.80;;;8.20;99.90;;;;;;6344800;22;20010;-78
2023/01/16 02:05:36;;;;;;;5.70;0.80;;;8.20;99.90;;;;;;6344605;22;19995;-79
2023/01/16 02:08:04;;;;;;;2.60;0.90;;;8.20;99.90;;;;;;6344942;22;19995;-78
2023/01/16 02:11:04;;;;;;;6.70;1.05;;;8.10;99.90;;;;;;6345006;22;19995;-77
2023/01/16 02:13:30;;;;;;;5.78;1.10;;;8.10;99.90;;;;;;6323546;22;20013;-77
2023/01/16 02:22:23;;;;;;;5.03;0.93;;;8.10;99.90;;;;;;6344486;22;20089;-78
2023/01/16 02:25:07;;;;;;;6.22;1.20;;;8.00;99.90;;;;;;6336610;22;19999;-78
2023/01/16 02:28:11;;;;;;;3.08;0.93;;;8.00;99.90;;;;;;6345114;22;20305;-75
2023/01/16 02:30:52;;;;;;;;;;;8.00;99.90;;;;;;6345262;22;20071;-76
2023/01/16 02:33:30;;;;;;;4.38;1.00;;;8.10;99.90;;;;;;6344334;22;19907;-77
2023/01/16 02:36:09;;;;;;;4.68;1.00;;;8.10;99.90;;;;;;6344485;22;20002;-77
2023/01/16 02:38:55;;;;;;;4.57;1.23;;;8.00;99.90;;;;;;6316748;22;19999;-77
2023/01/16 02:41:41;;;;;;;1.85;0.68;;;8.00;99.90;;;;;;6344490;22;20407;-77
2023/01/16 02:44:23;;;;;;;6.13;1.00;;;7.80;99.90;;;;;;6344668;22;19999;-77
2023/01/16 02:46:58;;;;;;;2.55;0.50;;;7.70;99.90;;;;;;6344494;22;20003;-77
2023/01/16 02:49:33;;;;;;;2.65;0.63;;;7.70;99.90;;;;;;6344460;22;19999;-77
2023/01/16 02:52:17;;;;;;;3.17;0.50;;;7.60;99.90;;;;;;6344720;22;20002;-77
2023/01/16 02:54:58;;;;;;;2.67;0.63;;;7.60;99.90;;;;;;6316894;22;20029;-77
2023/01/16 02:57:29;;;;;;;2.17;0.70;;;7.60;99.90;;;;;;6344015;22;19998;-77
2023/01/16 02:59:55;;;;;;;1.42;0.60;;;7.60;99.90;;;;;;6316766;22;20028;-76
2023/01/16 03:02:21;;;;;;;2.97;0.52;;;7.60;99.90;;;;;;6344193;22;20050;-78
2023/01/16 03:04:50;;;;;;;1.90;0.55;;;7.60;99.90;;;;;;6344041;22;20408;-78
2023/01/16 03:07:29;;;;;;;2.08;0.63;;;7.60;99.90;;;;;;6344253;22;20010;-77
2023/01/16 03:10:18;;;;;;;1.10;0.47;;;7.60;99.90;;;;;;6344280;22;20003;-77
2023/01/16 03:13:09;;;;;;;2.50;0.70;;;7.60;99.90;;;;;;6316263;22;20007;-77
2023/01/16 03:15:48;;;;;;;2.45;0.40;;;7.60;99.90;;;;;;6343998;22;20420;-76
2023/01/16 03:18:44;;;;;;;1.45;0.60;;;7.60;99.90;;;;;;6344053;22;20029;-76
2023/01/16 03:21:15;;;;;;;3.33;0.65;;;7.60;99.90;;;;;;6343793;22;20434;-76
2023/01/16 03:23:53;;;;;;;2.28;0.40;;;7.60;99.90;;;;;;6344376;22;20206;-76
2023/01/16 03:26:46;;;;;;;1.65;0.50;;;7.70;99.90;;;;;;6316494;22;20002;-76
2023/01/16 03:29:18;;;;;;;0.85;0.50;;;7.70;99.90;;;;;;6316725;22;20003;-76
2023/01/16 03:32:02;;;;;;;3.25;0.50;;;7.70;99.90;;;;;;6343806;22;20003;-77
2023/01/16 03:34:34;;;;;;;1.50;0.40;;;7.70;99.90;;;;;;6343615;22;20017;-77
2023/01/16 03:37:14;;;;;;;3.45;0.47;;;7.70;99.90;;;;;;6344419;22;20082;-77
2023/01/16 03:39:46;;;;;;;1.33;0.35;;;7.70;99.90;;;;;;6344174;22;20029;-77
2023/01/16 03:42:16;;;;;;;3.42;0.50;;;7.70;99.90;;;;;;6316476;22;20007;-77
2023/01/16 03:44:51;;;;;;;2.03;0.63;;;7.70;99.90;;;;;;6343982;22;20028;-77
2023/01/16 03:47:24;;;;;;;2.35;0.50;;;7.70;99.90;;;;;;6343931;22;20049;-77
2023/01/16 03:49:55;;;;;;;2.75;0.65;;;7.70;99.90;;;;;;6315876;22;20003;-76
2023/01/16 03:52:24;;;;;;;2.20;0.43;;;7.70;99.90;;;;;;6316400;22;20331;-76
2023/01/16 03:55:19;;;;;;;1.90;0.70;;;7.70;99.90;;;;;;6343884;22;19999;-77
2023/01/16 03:57:50;;;;;;;2.88;0.57;;;7.50;99.90;;;;;;6316020;22;20007;-77
2023/01/16 04:00:18;;;;;;;1.55;0.40;;;7.40;99.90;;;;;;6343846;22;20132;-76
2023/01/16 04:03:00;;;;;;;2.03;0.50;;;7.40;99.90;;;;;;6316052;22;20028;-76
2023/01/16 04:05:45;;;;;;;2.30;0.50;;;7.30;99.90;;;;;;6343735;22;20383;-77
2023/01/16 04:08:19;;;;;;;1.55;0.40;;;7.30;99.90;;;;;;6343798;22;20044;-76
2023/01/16 04:10:49;;;;;;;2.28;0.47;;;7.30;99.90;;;;;;6316118;22;20007;-77
2023/01/16 04:13:19;;;;;;;1.38;0.40;;;7.30;99.90;;;;;;6316349;22;20006;-76
2023/01/16 04:15:50;;;;;;;1.42;0.30;;;7.20;99.90;;;;;;6344194;22;20010;-76
2023/01/16 04:18:16;;;;;;;0.93;0.40;;;7.20;99.90;;;;;;6344140;22;20024;-76
2023/01/16 04:20:46;;;;;;;0.95;0.40;;;7.10;99.90;;;;;;6343102;22;20044;-78
2023/01/16 04:23:13;;;;;;;2.30;0.30;;;7.10;99.90;;;;;;6316219;22;20002;-77
2023/01/16 04:25:39;;;;;;;1.92;0.52;;;7.10;99.90;;;;;;6343675;22;20002;-78
2023/01/16 04:28:05;;;;;;;1.98;0.30;;;7.10;99.90;;;;;;6343352;22;19995;-78
2023/01/16 04:30:30;;;;;;;1.55;0.50;;;7.10;99.90;;;;;;6343631;22;20003;-77
2023/01/16 04:32:56;;;;;;;2.10;0.22;;;7.00;99.90;;;;;;6343345;22;20074;-78
2023/01/16 04:35:22;;;;;;;1.13;0.40;;;7.00;99.90;;;;;;6343391;22;20003;-77
2023/01/16 04:37:47;;;;;;;0.95;0.50;;;6.90;99.90;;;;;;6343107;22;20500;-78
2023/01/16 04:40:13;;;;;;;2.38;0.22;;;6.90;99.90;;;;;;6315990;22;20017;-77
2023/01/16 04:42:39;;;;;;;2.15;0.20;;;6.80;99.90;;;;;;6343553;22;19999;-78
2023/01/16 04:45:05;;;;;;;0.65;0.30;;;6.70;99.90;;;;;;6315749;22;19999;-80
2023/01/16 04:47:30;;;;;;;0.10;0.10;;;6.70;99.90;;;;;;6343555;22;19995;-77
2023/01/16 04:49:56;;;;;;;0.22;0.13;;;6.60;99.90;;;;;;6343126;22;20002;-78
2023/01/16 04:52:22;;;;;;;1.17;0.25;;;6.50;99.90;;;;;;6343380;22;20022;-79
2023/01/16 04:54:47;;;;;;;0.10;0.10;;;6.50;99.90;;;;;;6315840;22;20003;-78
2023/01/16 04:57:13;;;;;;;1.98;0.30;;;6.40;99.90;;;;;;6315545;22;20010;-79
2023/01/16 04:59:39;;;;;;;0.82;0.30;;;6.40;99.90;;;;;;6315776;22;20051;-79
2023/01/16 05:02:04;;;;;;;0.57;0.30;;;6.40;99.90;;;;;;6343107;22;19999;-78
2023/01/16 05:04:30;;;;;;;0.80;0.55;;;6.40;99.90;;;;;;6343334;22;19999;-78
2023/01/16 05:06:56;;;;;;;0.88;0.20;;;6.40;99.90;;;;;;6343466;22;20412;-78
2023/01/16 05:09:21;;;;;;;1.17;0.30;;;6.40;99.90;;;;;;6315825;22;20511;-78
2023/01/16 05:11:47;;;;;;;1.85;0.40;;;6.40;99.90;;;;;;6343377;22;20007;-78
2023/01/16 05:14:13;;;;;;;1.02;0.28;;;6.40;99.90;;;;;;6343516;22;20026;-78
2023/01/16 05:16:41;;;;;;;2.88;0.50;;;6.40;99.90;;;;;;6315495;22;20071;-78
2023/01/16 05:19:08;;;;;;;3.13;0.85;;;6.50;99.90;;;;;;6315433;22;20006;-78
2023/01/16 05:21:33;;;;;;;3.15;0.63;;;6.50;99.90;;;;;;6342954;22;19999;-78
2023/01/16 05:23:59;;;;;;;1.95;0.50;;;6.50;99.90;;;;;;6343159;22;20002;-77
2023/01/16 05:26:25;;;;;;;0.50;0.40;;;6.50;99.90;;;;;;6343450;22;20337;-78
2023/01/16 05:28:51;;;;;;;1.75;0.30;;;6.50;99.90;;;;;;6343195;22;20086;-78
2023/01/16 05:31:16;;;;;;;2.67;0.50;;;6.40;99.90;;;;;;6343543;22;20041;-79
2023/01/16 05:33:42;;;;;;;2.75;0.60;;;6.40;99.90;;;;;;6342729;22;20015;-78
2023/01/16 05:36:08;;;;;;;2.97;0.60;;;6.30;99.90;;;;;;6343270;22;20081;-80
2023/01/16 05:38:34;;;;;;;3.83;0.60;;;6.30;99.90;;;;;;6343754;22;20483;-80
2023/01/16 05:40:59;;;;;;;3.25;0.50;;;6.30;99.90;;;;;;6343443;22;19999;-80
2023/01/16 05:43:27;;;;;;;1.88;0.50;;;6.20;99.90;;;;;;6315890;22;20003;-83
2023/01/16 05:45:53;;;;;;;2.42;0.52;;;6.20;99.90;;;;;;6315400;22;19999;-80
2023/01/16 05:48:19;;;;;;;1.92;0.50;;;6.10;99.90;;;;;;6343771;22;20002;-81
2023/01/16 05:50:44;;;;;;;1.75;0.60;;;6.10;99.90;;;;;;6344712;22;20434;-82
2023/01/16 05:53:10;;;;;;;1.65;0.30;;;6.00;99.90;;;;;;6317263;22;20011;-82
2023/01/16 05:55:44;;;;;;;2.90;0.45;;;6.00;99.90;;;;;;6345081;22;20005;-81
2023/01/16 05:58:17;;;;;;;1.38;0.40;;;6.00;99.90;;;;;;6317408;22;20093;-82
2023/01/16 06:00:43;;;;;;;;;;;6.00;99.90;;;;;;6317622;22;20009;-82
2023/01/16 06:03:09;;;;;;;2.13;0.50;;;5.90;99.90;;;;;;6316865;22;19903;-81
2023/01/16 06:05:37;;;;;;;2.10;0.40;;;5.90;99.90;;;;;;6344621;22;20006;-82
2023/01/16 06:08:04;;;;;;;2.63;0.50;;;5.90;99.90;;;;;;6316827;22;20077;-82
2023/01/16 06:10:30;;;;;;;2.00;0.68;;;5.90;99.90;;;;;;6317295;22;20007;-81
2023/01/16 06:12:56;;;;;;;2.53;0.77;;;5.90;99.90;;;;;;6344839;22;20025;-83
2023/01/16 06:15:22;;;;;;;3.72;0.68;;;5.90;99.90;;;;;;6344789;22;20002;-81
2023/01/16 06:17:50;;;;;;;1.48;0.50;;;5.90;99.90;;;;;;6317004;22;20002;-80
2023/01/16 06:20:16;;;;;;;2.20;0.60;;;5.90;99.90;;;;;;6316586;22;20010;-81
2023/01/16 06:22:41;;;;;;;4.57;0.95;;;5.90;99.90;;;;;;6317415;22;20002;-80
2023/01/16 06:25:07;;;;;;;3.60;1.13;;;5.90;99.90;;;;;;6344697;22;19995;-81
2023/01/16 06:27:33;;;;;;;3.60;0.75;;;5.90;99.90;;;;;;6317536;22;20428;-79
2023/01/16 06:29:59;;;;;;;3.65;0.60;;;5.90;99.90;;;;;;6344799;22;19998;-79
2023/01/16 06:32:24;;;;;;;4.95;0.95;;;5.90;99.90;;;;;;6344718;22;20003;-80
2023/01/16 06:34:50;;;;;;;5.53;1.13;;;6.00;99.90;;;;;;6344417;22;20019;-79
2023/01/16 06:37:16;;;;;;;6.30;0.95;;;6.00;99.90;;;;;;6344418;22;20079;-82
2023/01/16 06:39:41;;;;;;;3.80;0.90;;;6.00;99.90;;;;;;6316802;22;20013;-79
2023/01/16 06:42:07;;;;;;;3.85;0.90;;;6.10;99.90;;;;;;6316571;22;20002;-80
2023/01/16 06:44:33;;;;;;;5.30;0.82;;;6.00;99.90;;;;;;6316893;22;20035;-80
2023/01/16 06:47:00;;;;;;;3.70;0.98;;;6.00;99.90;;;;;;6344341;22;19995;-80
2023/01/16 06:49:26;;;;;;;2.38;0.80;;;6.00;99.90;;;;;;6316638;22;20005;-79
2023/01/16 06:51:51;;;;;;;4.03;1.25;;;6.10;99.90;;;;;;6344295;22;20431;-79
2023/01/16 06:54:17;;;;;;;4.90;1.05;;;6.10;99.90;;;;;;6316685;22;20002;-80
2023/01/16 06:56:43;;;;;;;1.88;0.90;;;6.10;99.90;;;;;;6317218;22;20127;-80
2023/01/16 06:59:09;;;;;;;4.03;1.08;;;6.10;99.90;;;;;;6344276;22;20428;-79
2023/01/16 07:01:34;;;;;;;4.70;0.88;;;6.10;99.90;;;;;;6344020;22;20013;-79
2023/01/16 07:04:00;;;;;;;2.88;1.00;;;6.10;99.90;;;;;;6344327;22;20424;-79
2023/01/16 07:06:26;;;;;;;4.47;1.00;;;6.10;99.90;;;;;;6316559;22;20010;-79
2023/01/16 07:08:52;;;;;;;4.82;0.98;;;6.10;99.90;;;;;;6316918;22;19999;-81
2023/01/16 07:11:18;;;;;;;9.57;1.23;;;6.10;99.90;;;;;;6344379;22;19998;-80
2023/01/16 07:13:45;;;;;;;6.47;1.48;;;6.10;99.90;;;;;;6343768;22;20092;-81
2023/01/16 07:24:33;;;;;;;5.65;1.17;;;6.10;99.90;;;;;;6344117;22;20103;-80
2023/01/16 07:27:04;;;;;;;3.17;0.85;;;6.10;99.90;;;;;;6344401;22;20057;-79
2023/01/16 07:29:32;;;;;;;5.05;0.85;;;6.00;99.90;;;;;;6316410;22;20010;-81
2023/01/16 07:32:00;;;;;;;2.88;0.55;;;6.10;99.90;;;;;;6344058;22;19999;-79
2023/01/16 07:34:25;;;;;;;4.00;0.88;;;6.00;99.90;;;;;;6343470;22;20010;-81
2023/01/16 07:36:51;;;;;;;2.30;0.82;;;6.00;99.90;;;;;;6316453;22;20052;-82
2023/01/16 07:39:17;;;;;;;3.40;1.15;;;6.00;99.90;;;;;;6343357;22;19994;-83
2023/01/16 07:41:43;;;;;;;4.75;0.95;;;6.10;99.90;;;;;;6316104;22;20003;-82
2023/01/16 07:44:09;;;;;;;5.20;0.73;;;6.10;99.90;;;;;;6316694;22;20305;-80
2023/01/16 07:46:35;;;;;;;3.65;0.98;;;6.10;99.90;;;;;;6316361;22;19999;-80
2023/01/16 07:49:01;;;;;;;3.05;0.93;;;6.10;99.90;;;;;;6343511;22;20002;-82
2023/01/16 07:52:19;;;;;;;3.65;0.65;;;6.10;99.90;;;;;;6343939;22;20022;-85
2023/01/16 07:54:45;;;;;;;5.20;0.80;;;6.10;99.90;;;;;;6187594;23;20013;-79
2023/01/16 07:57:10;;;;;;;1.92;0.80;;;6.10;99.90;;;;;;6307967;22;20013;-80
2023/01/16 07:59:36;;;;;;;1.83;0.70;;;6.10;99.90;;;;;;6316410;22;20003;-80
2023/01/16 08:02:02;;;;;;;4.60;0.90;;;6.10;99.90;;;;;;6343739;22;20033;-80
2023/01/16 08:04:28;;;;;;;2.47;0.50;;;6.10;99.90;;;;;;6316051;22;19999;-80
2023/01/16 08:06:53;;;;;;;3.20;1.13;;;6.10;99.90;;;;;;6316197;22;20461;-80
2023/01/16 08:09:19;;;;;;;2.10;0.88;;;6.10;99.90;;;;;;6343726;22;19999;-79
2023/01/16 08:11:46;;;;;;;3.28;1.05;;;6.20;99.90;;;;;;6316503;22;20006;-80
2023/01/16 08:14:13;;;;;;;5.50;1.50;;;6.20;99.90;;;;;;6343875;22;20027;-80
2023/01/16 08:16:39;;;;;;;5.95;0.90;;;6.30;99.90;;;;;;6316488;22;20014;-79
2023/01/16 08:19:04;;;;;;;2.53;0.85;;;6.20;99.90;;;;;;6343512;22;20427;-80
2023/01/16 08:21:30;;;;;;;3.70;0.70;;;6.00;99.90;;;;;;6315804;22;20016;-83
2023/01/16 08:28:20;;;;;;;;;;;;;;;;;;;;;
2023/01/16 08:31:15;;;;;;;1.60;0.55;;;5.60;99.90;;;;;;6326602;22;20082;-84
2023/01/16 08:34:40;;;;;;;1.65;0.43;;;5.50;99.90;;;;;;6310414;22;20095;-82
2023/01/16 08:51:48;;;;;;;0.63;0.20;;;5.50;99.90;;;;;;6342870;22;20010;-74
2023/01/16 08:54:14;;;;;;;1.17;0.30;;;5.60;99.90;;;;;;6340702;22;20003;-74
2023/01/16 08:56:42;;;;;;;2.38;0.40;;;5.60;99.90;;;;;;6340649;22;20051;-74
2023/01/16 08:59:09;;;;;;;0.93;0.45;;;5.70;99.90;;;;;;6342743;22;20002;-74
2023/01/16 09:01:35;;;;;;;2.47;0.63;;;5.70;99.90;;;;;;6342306;22;19999;-74
2023/01/16 09:04:01;;;;;;;1.05;0.40;;;5.70;99.90;;;;;;6342278;22;20102;-74
2023/01/16 09:06:26;;;;;;;2.20;0.57;;;5.70;99.90;;;;;;6341833;22;19995;-73
2023/01/16 09:08:52;;;;;;;3.83;0.60;;;5.70;99.90;;;;;;6341911;22;19999;-75
2023/01/16 09:14:02;;;;;;;4.28;0.73;;;5.70;99.90;;;;;;6343098;22;20014;-73
2023/01/16 09:16:27;;;;;;;3.83;0.47;;;5.70;99.90;;;;;;6343498;22;19999;-73
2023/01/16 09:18:53;;;;;;;4.30;0.70;;;5.70;99.90;;;;;;6315322;22;20026;-73
2023/01/16 09:21:19;;;;;;;1.73;0.50;;;5.70;99.90;;;;;;6343458;22;20007;-72
2023/01/16 09:23:46;;;;;;;1.73;0.57;;;5.70;99.90;;;;;;6316644;22;20006;-73
2023/01/16 09:26:11;;;;;;;2.38;0.50;;;5.70;99.90;;;;;;6345431;22;19995;-74
2023/01/16 09:28:37;;;;;;;2.72;0.52;;;5.70;99.90;;;;;;6345694;22;19999;-78
2023/01/16 09:31:04;;;;;;;2.05;0.50;;;5.70;99.90;;;;;;6316644;22;20018;-80
2023/01/16 09:33:29;;;;;;;2.30;0.82;;;5.80;99.90;;;;;;6344042;22;19995;-76
2023/01/16 09:35:55;;;;;;;4.80;0.95;;;5.80;99.90;;;;;;6316793;22;20011;-76
2023/01/16 09:38:21;;;;;;;1.52;0.75;;;5.90;99.90;;;;;;6317174;22;19998;-82
2023/01/16 09:40:50;;;;;;;0.75;0.60;;;5.90;99.90;;;;;;6318521;22;20082;-79
2023/01/16 09:43:40;;;;;;;1.92;0.63;;;6.00;99.90;;;;;;6345057;22;20003;-76
2023/01/16 09:46:19;;;;;;;2.10;0.70;;;6.10;99.90;;;;;;6344573;22;20387;-79
2023/01/16 09:49:02;;;;;;;2.22;0.57;;;6.10;99.90;;;;;;6346290;22;20041;-76
2023/01/16 09:51:35;;;;;;;3.95;0.90;;;6.10;99.90;;;;;;6315079;22;20013;-79
2023/01/16 09:59:39;;;;;;;2.42;0.80;;;6.10;99.90;;;;;;6344519;22;20013;-73
2023/01/16 10:02:32;;;;;;;3.92;1.15;;;6.10;99.90;;;;;;6317274;22;20028;-73
2023/01/16 10:04:58;;;;;;;3.35;0.80;;;6.20;99.90;;;;;;6345596;22;20002;-77
2023/01/16 10:07:46;;;;;;;2.05;0.60;;;6.30;99.90;;;;;;6316191;22;20031;-76
2023/01/16 10:10:22;;;;;;;2.92;0.77;;;6.30;99.90;;;;;;6343672;22;19998;-75
2023/01/16 10:13:08;;;;;;;1.77;0.80;;;6.40;99.90;;;;;;6345261;22;19995;-76
2023/01/16 10:15:51;;;;;;;2.45;0.73;;;6.40;99.90;;;;;;6345030;22;19999;-76
2023/01/16 10:18:51;;;;;;;1.37;0.77;;;6.40;99.90;;;;;;6344296;22;20053;-76
2023/01/16 10:21:59;;;;;;;3.33;0.80;;;6.40;99.90;;;;;;6344922;22;20506;-79
2023/01/16 10:24:43;;;;;;;2.63;0.73;;;6.40;99.90;;;;;;6345325;22;20033;-74
2023/01/16 10:27:30;;;;;;;3.65;1.00;;;6.50;99.90;;;;;;6343745;22;19994;-75
2023/01/16 10:30:05;;;;;;;1.73;0.50;;;6.50;99.90;;;;;;6345710;22;20022;-76
2023/01/16 10:32:50;;;;;;;2.55;0.82;;;6.50;99.90;;;;;;6318873;22;20006;-75
2023/01/16 10:35:27;;;;;;;1.05;0.45;;;6.50;99.90;;;;;;6344983;22;20067;-76
2023/01/16 10:37:54;;;;;;;2.28;0.70;;;6.60;99.90;;;;;;6316673;22;20111;-75
2023/01/16 10:40:25;;;;;;;1.17;0.45;;;6.60;99.90;;;;;;6316833;22;20093;-76
2023/01/16 10:51:15;;;;;;;3.45;0.57;;;6.60;99.90;;;;;;6343885;22;20013;-75
2023/01/16 10:53:41;;;;;;;1.50;0.60;;;6.70;99.90;;;;;;6344034;22;19995;-74
2023/01/16 10:56:07;;;;;;;2.00;0.43;;;6.80;99.90;;;;;;6343121;22;20331;-75
2023/01/16 10:58:36;;;;;;;2.83;0.80;;;6.80;99.90;;;;;;6343738;22;20002;-73
2023/01/16 11:01:12;;;;;;;3.55;0.55;;;6.80;99.90;;;;;;6315967;22;19999;-74
2023/01/16 11:03:52;;;;;;;4.07;0.60;;;6.80;99.90;;;;;;6342785;22;19995;-72
2023/01/16 11:06:24;;;;;;;2.65;0.77;;;6.80;99.90;;;;;;6341970;22;20002;-73
2023/01/16 11:09:00;;;;;;;1.45;0.60;;;6.80;99.90;;;;;;6342062;22;20006;-77
2023/01/16 11:20:20;;;;;;;3.80;0.70;;;6.90;99.90;;;;;;6343895;22;20045;-75
2023/01/16 11:22:57;;;;;;;1.05;0.40;;;7.00;99.90;;;;;;6316652;22;20003;-74
2023/01/16 11:25:23;;;;;;;2.67;0.68;;;7.10;99.90;;;;;;6315763;22;20010;-76
2023/01/16 11:27:51;;;;;;;1.95;0.50;;;7.20;99.90;;;;;;6316592;22;20305;-79
2023/01/16 11:30:21;;;;;;;4.80;0.90;;;7.30;99.90;;;;;;6343913;22;20013;-77
2023/01/16 11:32:48;;;;;;;3.20;0.80;;;7.30;99.90;;;;;;6342856;22;20003;-76
2023/01/16 11:35:16;;;;;;;1.90;0.70;;;7.30;99.90;;;;;;6313553;22;20021;-77
2023/01/16 11:37:44;;;;;;;2.90;0.60;;;7.40;99.90;;;;;;6314214;22;20023;-77
2023/01/16 11:40:20;;;;;;;1.15;0.50;;;7.40;99.90;;;;;;6344049;22;19999;-77
2023/01/16 11:48:27;;;;;;;3.15;0.77;;;7.20;99.90;;;;;;6319913;22;20005;-73
2023/01/16 11:50:58;;;;;;;2.10;0.50;;;7.10;99.90;;;;;;6316317;22;19999;-77
2023/01/16 11:53:30;;;;;;;2.50;0.60;;;7.20;99.90;;;;;;6344081;22;20002;-72
2023/01/16 11:56:11;;;;;;;2.08;0.40;;;7.20;99.90;;;;;;6344303;22;20006;-77
2023/01/16 11:58:56;;;;;;;3.67;0.55;;;7.20;99.90;;;;;;6344069;22;20013;-73
2023/01/16 12:08:10;;;;;;;3.00;0.73;;;7.30;99.90;;;;;;6343944;22;20455;-76
2023/01/16 12:10:47;;;;;;;2.38;1.10;;;7.30;99.90;;;;;;6265457;22;19999;-75
2023/01/16 12:16:13;;;;;;;1.15;0.40;;;7.30;99.90;;;;;;6343838;22;20056;-77
2023/01/16 12:18:41;;;;;;;1.63;0.40;;;7.40;99.90;;;;;;6343566;22;19999;-77
2023/01/16 12:21:54;;;;;;;2.28;0.55;;;7.40;99.90;;;;;;6343728;22;20087;-77
2023/01/16 12:24:28;;;;;;;5.20;0.82;;;7.40;99.90;;;;;;6273681;22;20075;-79
2023/01/16 12:27:08;;;;;;;2.20;0.60;;;7.50;99.90;;;;;;6315035;22;20030;-76
2023/01/16 12:30:03;;;;;;;1.35;0.40;;;7.50;99.90;;;;;;6343641;22;20028;-74
2023/01/16 12:32:35;;;;;;;1.60;0.70;;;7.50;99.90;;;;;;6342266;22;20015;-73
2023/01/16 12:35:09;;;;;;;1.52;0.45;;;7.60;99.90;;;;;;6315241;22;20071;-74
2023/01/16 12:37:47;;;;;;;2.50;0.70;;;7.50;99.90;;;;;;6340918;22;19999;-76
2023/01/16 12:40:25;;;;;;;2.95;0.75;;;7.60;99.90;;;;;;6340786;22;20002;-71
2023/01/16 12:43:19;;;;;;;1.60;0.90;;;7.70;99.90;;;;;;6313450;22;20030;-71
2023/01/16 12:46:03;;;;;;;2.03;0.50;;;7.70;99.90;;;;;;6343220;22;20010;-72
2023/01/16 12:48:37;;;;;;;3.90;0.75;;;7.70;99.90;;;;;;6342434;22;20332;-70
2023/01/16 12:51:31;;;;;;;1.45;0.40;;;7.70;99.90;;;;;;6314863;22;19998;-72
2023/01/16 12:54:17;;;;;;;1.27;0.43;;;7.70;99.90;;;;;;6340554;22;20523;-73
2023/01/16 12:57:06;;;;;;;1.67;0.50;;;7.70;99.90;;;;;;6339857;22;20466;-77
2023/01/16 12:59:35;;;;;;;2.05;0.93;;;7.80;99.90;;;;;;6315689;22;20010;-76
2023/01/16 13:02:40;;;;;;;2.05;0.73;;;7.80;99.90;;;;;;6344490;22;20003;-76
2023/01/16 13:05:18;;;;;;;3.15;0.70;;;7.90;99.90;;;;;;6338318;22;20006;-75
2023/01/16 13:07:56;;;;;;;3.95;0.60;;;7.90;99.90;;;;;;6316349;22;19999;-74
2023/01/16 13:13:28;;;;;;;2.45;0.40;;;7.80;99.90;;;;;;6344850;22;20013;-72
2023/01/16 13:16:19;;;;;;;1.55;0.55;;;7.80;99.90;;;;;;6345261;22;20054;-73
2023/01/16 13:19:04;;;;;;;3.22;0.60;;;7.80;99.90;;;;;;6315805;22;20006;-70
2023/01/16 13:21:39;;;;;;;2.13;0.57;;;7.80;99.90;;;;;;6345436;22;20006;-68
2023/01/16 13:24:20;;;;;;;4.50;0.75;;;7.80;99.90;;;;;;6344251;22;20075;-70
2023/01/16 13:26:55;;;;;;;2.58;0.50;;;7.80;99.90;;;;;;6317387;22;19998;-70
2023/01/16 13:29:33;;;;;;;2.67;0.50;;;7.90;99.90;;;;;;6343683;22;19995;-70
2023/01/16 13:32:12;;;;;;;1.77;0.55;;;7.90;99.90;;;;;;6345088;22;19998;-73
2023/01/16 13:34:49;;;;;;;1.27;0.45;;;7.90;99.90;;;;;;6316679;22;20085;-73
2023/01/16 13:37:32;;;;;;;2.08;0.57;;;7.90;99.90;;;;;;6345186;22;19998;-74
2023/01/16 13:40:22;;;;;;;1.80;0.50;;;7.90;99.90;;;;;;6316777;22;20003;-73
2023/01/16 13:42:57;;;;;;;3.72;0.73;;;7.90;99.90;;;;;;6345025;22;20003;-72
2023/01/16 13:45:48;;;;;;;3.10;0.70;;;7.90;99.90;;;;;;6317296;22;20002;-72
2023/01/16 13:48:32;;;;;;;1.58;0.70;;;7.90;99.90;;;;;;6344610;22;20051;-72
2023/01/16 13:51:01;;;;;;;3.15;0.38;;;7.90;99.90;;;;;;6344944;22;20381;-71
2023/01/16 13:53:29;;;;;;;0.65;0.30;;;7.90;99.90;;;;;;6344938;22;20054;-71
2023/01/16 13:56:13;;;;;;;0.80;0.40;;;7.90;99.90;;;;;;6317305;22;20029;-72
2023/01/16 13:58:46;;;;;;;2.33;0.60;;;7.90;99.90;;;;;;6344687;22;20007;-71
2023/01/16 14:01:39;;;;;;;3.07;0.70;;;7.80;99.90;;;;;;6344667;22;20086;-71
2023/01/16 14:04:30;;;;;;;2.50;0.50;;;7.90;99.90;;;;;;6344418;22;20385;-71
2023/01/16 14:10:10;;;;;;;0.75;0.45;;;7.90;99.90;;;;;;6343830;22;20009;-72
2023/01/16 14:12:58;;;;;;;1.27;0.43;;;7.90;99.90;;;;;;6341165;22;20074;-73
2023/01/16 14:18:15;;;;;;;2.88;0.50;;;7.90;99.90;;;;;;6343427;22;20061;-71
2023/01/16 14:20:48;;;;;;;2.03;0.50;;;7.90;99.90;;;;;;6342650;22;20002;-71
2023/01/16 14:26:31;;;;;;;0.98;0.30;;;8.00;99.90;;;;;;6342615;22;20343;-74
2023/01/16 14:28:59;;;;;;;1.63;0.50;;;7.90;99.90;;;;;;6315981;22;20006;-71
2023/01/16 14:31:35;;;;;;;1.88;0.77;;;8.00;99.90;;;;;;6343897;22;19995;-71
2023/01/16 14:34:02;;;;;;;0.50;0.30;;;8.00;99.90;;;;;;6343272;22;20026;-67
2023/01/16 14:36:28;;;;;;;1.23;0.40;;;8.10;99.90;;;;;;6342010;22;20002;-73
2023/01/16 14:38:55;;;;;;;2.83;0.45;;;8.10;99.90;;;;;;6315952;22;19999;-71
2023/01/16 14:56:05;;;;;;;1.77;0.55;;;8.30;99.90;;;;;;6342493;22;20021;-75
2023/01/16 14:58:39;;;;;;;2.30;0.50;;;8.30;99.90;;;;;;6343614;22;19998;-71
2023/01/16 15:03:51;;;;;;;0.85;0.50;;;8.20;99.90;;;;;;6343307;22;20068;-71
2023/01/16 15:06:18;;;;;;;1.83;0.50;;;8.10;99.90;;;;;;6314190;22;20003;-72